Etusivu
METAR-TAF:

METAR-TAF

Lentoasemat :

Cahokia / St. Louis, Illinois, Yhdysvallat

Leveyspiiri: 38-34-15N, Pituuspiiri: 090-09-22W, korkeus merenpinnasta: 126 m

Tämänhetkinen sää

Tämä raportti tehtiin 10 minuuttia sitten, kello 16.53 UTC
Tuuli 6 kn etelästä/lounaasta
Lämpötila 7°C
Kosteus 36%
Ilmanpaine 1028 hPa
Näkyvyys: 16.1 km
selkeää

METAR: KCPS 221653Z 21006KT 10SM CLR 07/M07 A3037 RMK AO2 SLP287 T00671067 $

Aika: 11:03 (17:03 UTC)

Sääennuste

Tämä raportti tehtiin 5 tuntia ja 43 minuuttia sitten, kello 11.20 UTC
Ennuste voimassa 22. päivästä klo 12 UTC - 23. päivään klo 12 UTC
Tuuli 6 kn etelästä
Näkyvyys: 10 km
selkeää
From 23. päivästä klo 0600 UTC
Tuuli 4 kn eri suunnista
Näkyvyys: 10 km
Hajanaisia pilviä 15000 ft:n korkeudessa

TAF: KCPS 221120Z 2212/2312 19006KT P6SM SKC FM230600 VRB04KT P6SM SCT150

Säähavainnot ja -ennusteet yli 4000 lentoasemalta (METAR- ja TAF-raportit).

Käytössä olevat sääasemat on merkitty karttaan keltaisilla ja punaisilla pisteillä.

Aseta hiiri pisteen päälle nähdäksesi sääaseman nimen.

Klikkaa sitten nähdäksesi säähavainnot ja -ennusteet.

Kartan vaihtaminen: klikkaa mustalla rastilla varustettuja vihreitä pisteitä, niin voit zoomata sisään; viivalla varustettua vihreää pistettä, niin voit zoomata ulos tai vihreitä nuolia, niin pääset viereisille kartoille.


METAR-TAF: